Time;durP1;ratioP1;P1;durP2;ratioP2;P2;SDS_P1;SDS_P2;PMS_P1;PMS_P2;Temp;Humidity;BMP_temperature;BMP_pressure;BME280_temperature;BME280_humidity;BME280_pressure;Samples;Min_cycle;Max_cycle;Signal;HPM_P1;HPM_P2
2023/08/22 00:01:16;;;;;;;5.40;5.00;;;;;;;;;;5071304;28;20388;-85
2023/08/22 00:03:42;;;;;;;5.80;5.30;;;;;;;;;;5061814;28;20395;-83
2023/08/22 00:06:08;;;;;;;5.60;5.20;;;;;;;;;;5072960;28;20431;-83
2023/08/22 00:08:34;;;;;;;5.97;5.47;;;;;;;;;;5091712;28;20397;-84
2023/08/22 00:11:00;;;;;;;5.45;5.05;;;;;;;;;;5083825;28;20415;-84
2023/08/22 00:13:26;;;;;;;5.40;5.00;;;;;;;;;;5091029;28;20522;-84
2023/08/22 00:15:52;;;;;;;5.50;5.10;;;;;;;;;;5078155;28;20407;-84
2023/08/22 00:18:18;;;;;;;5.90;5.40;;;;;;;;;;5097358;28;20390;-84
2023/08/22 00:20:44;;;;;;;5.93;5.43;;;;;;;;;;5086845;28;20392;-84
2023/08/22 00:23:10;;;;;;;5.82;5.32;;;;;;;;;;5081015;28;20397;-84
2023/08/22 00:25:36;;;;;;;6.13;5.57;;;;;;;;;;5087978;28;20924;-84
2023/08/22 00:28:02;;;;;;;5.80;5.32;;;;;;;;;;5078457;28;20414;-84
2023/08/22 00:30:28;;;;;;;6.20;5.50;;;;;;;;;;5077390;28;20452;-84
2023/08/22 00:32:55;;;;;;;5.70;5.30;;;;;;;;;;5090741;28;20386;-84
2023/08/22 00:35:24;;;;;;;5.32;4.93;;;;;;;;;;5091597;28;20849;-84
2023/08/22 00:37:50;;;;;;;6.43;5.65;;;;;;;;;;5082187;28;20388;-83
2023/08/22 00:40:16;;;;;;;5.00;4.70;;;;;;;;;;5082003;28;20382;-84
2023/08/22 00:42:42;;;;;;;7.28;6.68;;;;;;;;;;5069215;28;20394;-85
2023/08/22 00:45:09;;;;;;;5.57;5.18;;;;;;;;;;5093621;28;20382;-84
2023/08/22 00:47:35;;;;;;;5.97;5.40;;;;;;;;;;5086287;28;20479;-85
2023/08/22 00:50:01;;;;;;;5.10;4.70;;;;;;;;;;5091458;28;20397;-84
2023/08/22 00:52:27;;;;;;;5.60;5.20;;;;;;;;;;5084663;28;20422;-84
2023/08/22 00:54:53;;;;;;;6.00;5.40;;;;;;;;;;5098058;28;20398;-85
2023/08/22 00:57:19;;;;;;;5.90;5.33;;;;;;;;;;5085151;28;20391;-83
2023/08/22 00:59:45;;;;;;;5.57;5.07;;;;;;;;;;5076859;28;20762;-84
2023/08/22 01:02:12;;;;;;;5.78;5.30;;;;;;;;;;5093978;28;20389;-84
2023/08/22 01:04:38;;;;;;;5.40;4.90;;;;;;;;;;5098101;28;20564;-84
2023/08/22 01:07:10;;;;;;;5.20;4.80;;;;;;;;;;5152145;22;20935;-89
2023/08/22 01:09:48;;;;;;;5.47;4.97;;;;;;;;;;5063107;28;20395;-89
2023/08/22 01:12:30;;;;;;;6.30;5.30;;;;;;;;;;5072562;28;20496;-87
2023/08/22 01:15:14;;;;;;;5.38;4.97;;;;;;;;;;5055291;28;20384;-88
2023/08/22 01:17:50;;;;;;;6.15;5.68;;;;;;;;;;5066107;28;20440;-89
2023/08/22 01:20:20;;;;;;;6.35;5.38;;;;;;;;;;5070875;28;20772;-89
2023/08/22 01:22:52;;;;;;;5.40;4.95;;;;;;;;;;5065993;28;20428;-89
2023/08/22 01:25:18;;;;;;;5.25;4.88;;;;;;;;;;5057259;28;20384;-89
2023/08/22 01:27:44;;;;;;;5.40;4.90;;;;;;;;;;5072716;28;20425;-89
2023/08/22 01:30:16;;;;;;;5.20;4.80;;;;;;;;;;5054579;28;20861;-89
2023/08/22 01:32:44;;;;;;;5.17;4.77;;;;;;;;;;5053607;28;20412;-90
2023/08/22 01:35:17;;;;;;;5.40;4.90;;;;;;;;;;5086052;28;20828;-88
2023/08/22 01:37:44;;;;;;;5.85;5.35;;;;;;;;;;5087292;28;20383;-89
2023/08/22 01:40:11;;;;;;;5.53;5.07;;;;;;;;;;5054173;28;20380;-88
2023/08/22 01:42:46;;;;;;;5.68;5.22;;;;;;;;;;5058332;28;20397;-88
2023/08/22 01:45:14;;;;;;;5.22;4.82;;;;;;;;;;5054007;28;20402;-88
2023/08/22 01:47:43;;;;;;;5.55;5.10;;;;;;;;;;5073404;28;20382;-88
2023/08/22 01:50:09;;;;;;;5.88;5.38;;;;;;;;;;5063169;28;20375;-89
2023/08/22 01:52:35;;;;;;;5.97;5.47;;;;;;;;;;5086390;28;20415;-89
2023/08/22 01:55:07;;;;;;;5.30;4.90;;;;;;;;;;5083834;28;20370;-89
2023/08/22 01:57:33;;;;;;;5.85;5.35;;;;;;;;;;5074249;28;20389;-88
2023/08/22 01:59:59;;;;;;;5.50;5.10;;;;;;;;;;5084144;28;20390;-88
2023/08/22 02:02:25;;;;;;;6.07;5.57;;;;;;;;;;5068830;28;20716;-88
2023/08/22 02:04:51;;;;;;;5.45;5.05;;;;;;;;;;5074577;28;20390;-90
2023/08/22 02:07:17;;;;;;;5.70;5.20;;;;;;;;;;5062026;28;20940;-89
2023/08/22 02:09:43;;;;;;;5.55;5.13;;;;;;;;;;5070301;28;20405;-88
2023/08/22 02:12:09;;;;;;;5.72;5.22;;;;;;;;;;5070562;28;20438;-88
2023/08/22 02:14:35;;;;;;;5.65;5.15;;;;;;;;;;5067539;28;20748;-89
2023/08/22 02:17:01;;;;;;;5.63;5.20;;;;;;;;;;5074078;28;20401;-89
2023/08/22 02:19:27;;;;;;;5.65;5.15;;;;;;;;;;5080276;28;20840;-88
2023/08/22 02:21:53;;;;;;;5.60;5.10;;;;;;;;;;5072431;28;20388;-89
2023/08/22 02:24:19;;;;;;;5.90;5.40;;;;;;;;;;5072005;28;20384;-88
2023/08/22 02:26:47;;;;;;;5.95;5.45;;;;;;;;;;5069523;28;20393;-88
2023/08/22 02:29:13;;;;;;;6.13;5.63;;;;;;;;;;5084200;28;20387;-89
2023/08/22 02:31:39;;;;;;;5.78;5.28;;;;;;;;;;5086118;28;20410;-88
2023/08/22 02:34:05;;;;;;;5.70;5.22;;;;;;;;;;5067918;28;20463;-88
2023/08/22 02:36:31;;;;;;;5.35;4.95;;;;;;;;;;5084215;28;20382;-89
2023/08/22 02:38:57;;;;;;;5.15;4.65;;;;;;;;;;5074053;28;20383;-87
2023/08/22 02:41:26;;;;;;;5.53;5.13;;;;;;;;;;5063568;28;20386;-89
2023/08/22 02:43:52;;;;;;;5.78;5.38;;;;;;;;;;5072693;28;20385;-88
2023/08/22 02:46:18;;;;;;;5.60;5.20;;;;;;;;;;5065296;28;20944;-89
2023/08/22 02:48:44;;;;;;;5.85;5.30;;;;;;;;;;5062880;28;20390;-89
2023/08/22 02:51:11;;;;;;;5.50;5.10;;;;;;;;;;5070649;28;21988;-89
2023/08/22 02:53:37;;;;;;;5.23;4.80;;;;;;;;;;5066333;28;20397;-88
2023/08/22 02:56:04;;;;;;;5.87;5.40;;;;;;;;;;5074533;28;20942;-88
2023/08/22 02:58:30;;;;;;;5.40;5.00;;;;;;;;;;5070064;28;20745;-88
2023/08/22 03:00:57;;;;;;;5.60;5.10;;;;;;;;;;5067699;28;20460;-88
2023/08/22 03:03:23;;;;;;;6.07;5.57;;;;;;;;;;5057824;28;20383;-90
2023/08/22 03:05:49;;;;;;;5.20;4.80;;;;;;;;;;5071877;28;20465;-88
2023/08/22 03:08:15;;;;;;;5.78;5.38;;;;;;;;;;5071419;28;20530;-90
2023/08/22 03:10:41;;;;;;;5.47;5.07;;;;;;;;;;5074618;28;20375;-89
2023/08/22 03:13:07;;;;;;;5.90;5.40;;;;;;;;;;5088812;28;20388;-87
2023/08/22 03:15:33;;;;;;;6.53;6.03;;;;;;;;;;5067795;28;20717;-89
2023/08/22 03:17:59;;;;;;;6.82;6.32;;;;;;;;;;5073778;28;20461;-89
2023/08/22 03:20:25;;;;;;;6.30;5.80;;;;;;;;;;5065013;28;20875;-89
2023/08/22 03:22:51;;;;;;;6.15;5.75;;;;;;;;;;5063088;28;20383;-88
2023/08/22 03:25:17;;;;;;;5.97;5.55;;;;;;;;;;5063044;28;20771;-89
2023/08/22 03:27:42;;;;;;;6.07;5.68;;;;;;;;;;5095054;28;20374;-89
2023/08/22 03:30:09;;;;;;;6.55;5.95;;;;;;;;;;5058722;28;20388;-88
2023/08/22 03:32:35;;;;;;;6.43;5.72;;;;;;;;;;5066535;28;20763;-88
2023/08/22 03:35:01;;;;;;;7.10;6.43;;;;;;;;;;5074715;28;20390;-89
2023/08/22 03:37:27;;;;;;;6.45;5.95;;;;;;;;;;5056682;28;20431;-89
2023/08/22 03:39:53;;;;;;;6.60;6.10;;;;;;;;;;5056394;28;20380;-90
2023/08/22 03:42:19;;;;;;;7.07;6.40;;;;;;;;;;5088376;28;20372;-88
2023/08/22 03:44:45;;;;;;;6.38;5.88;;;;;;;;;;5056880;28;20460;-89
2023/08/22 03:47:11;;;;;;;6.63;6.03;;;;;;;;;;5070652;28;20429;-89
2023/08/22 03:49:37;;;;;;;6.68;6.07;;;;;;;;;;5074534;28;20459;-90
2023/08/22 03:52:03;;;;;;;6.85;6.35;;;;;;;;;;5056278;28;20780;-89
2023/08/22 03:54:29;;;;;;;6.57;5.97;;;;;;;;;;5054925;28;20869;-89
2023/08/22 03:56:55;;;;;;;6.87;6.27;;;;;;;;;;5088368;28;20386;-87
2023/08/22 03:59:21;;;;;;;6.90;6.30;;;;;;;;;;5074372;28;20386;-88
2023/08/22 04:01:47;;;;;;;6.95;6.35;;;;;;;;;;5068355;28;20384;-89
2023/08/22 04:04:14;;;;;;;6.20;5.78;;;;;;;;;;5067832;28;20398;-90
2023/08/22 04:06:41;;;;;;;5.80;5.40;;;;;;;;;;5087015;28;20781;-88
2023/08/22 04:09:07;;;;;;;6.30;5.80;;;;;;;;;;5056345;28;20394;-89
2023/08/22 04:11:33;;;;;;;6.78;6.18;;;;;;;;;;5055790;28;20396;-89
2023/08/22 04:13:59;;;;;;;6.80;6.20;;;;;;;;;;5073969;28;20441;-88
2023/08/22 04:16:25;;;;;;;6.40;5.90;;;;;;;;;;5059801;28;20396;-89
2023/08/22 04:18:51;;;;;;;6.03;5.63;;;;;;;;;;5073962;28;20384;-89
2023/08/22 04:21:17;;;;;;;6.20;5.80;;;;;;;;;;5069626;28;20727;-89
2023/08/22 04:23:43;;;;;;;6.50;6.00;;;;;;;;;;5055597;28;20391;-88
2023/08/22 04:26:09;;;;;;;6.35;5.68;;;;;;;;;;5055769;28;20434;-89
2023/08/22 04:28:36;;;;;;;6.07;5.68;;;;;;;;;;5055843;28;20383;-89
2023/08/22 04:31:02;;;;;;;6.43;5.97;;;;;;;;;;5056054;28;20411;-89
2023/08/22 04:33:28;;;;;;;6.07;5.68;;;;;;;;;;5088125;28;20395;-89
2023/08/22 04:35:55;;;;;;;5.93;5.50;;;;;;;;;;5078151;28;20765;-88
2023/08/22 04:38:20;;;;;;;6.28;5.78;;;;;;;;;;5056934;28;20384;-88
2023/08/22 04:40:47;;;;;;;6.70;6.10;;;;;;;;;;5068373;28;20778;-88
2023/08/22 04:43:12;;;;;;;6.10;5.60;;;;;;;;;;5069113;28;20728;-88
2023/08/22 04:45:41;;;;;;;6.60;6.00;;;;;;;;;;5055833;28;20383;-88
2023/08/22 04:48:07;;;;;;;6.15;5.65;;;;;;;;;;5056209;28;20384;-88
2023/08/22 04:50:33;;;;;;;6.88;6.28;;;;;;;;;;5055880;28;20427;-89
2023/08/22 04:53:02;;;;;;;6.65;6.10;;;;;;;;;;5056219;28;20399;-88
2023/08/22 04:55:28;;;;;;;6.40;5.90;;;;;;;;;;5069653;28;20386;-88
2023/08/22 04:57:54;;;;;;;6.28;5.78;;;;;;;;;;5064676;28;20413;-88
2023/08/22 05:00:20;;;;;;;6.63;6.13;;;;;;;;;;5075800;28;20467;-89
2023/08/22 05:02:46;;;;;;;6.57;6.00;;;;;;;;;;5070245;28;20392;-89
2023/08/22 05:05:12;;;;;;;6.55;5.95;;;;;;;;;;5077661;28;20390;-88
2023/08/22 05:07:38;;;;;;;6.63;5.95;;;;;;;;;;5062105;28;20383;-89
2023/08/22 05:10:04;;;;;;;6.20;5.70;;;;;;;;;;5075339;28;20457;-89
2023/08/22 05:12:30;;;;;;;6.43;5.93;;;;;;;;;;5057962;28;20897;-89
2023/08/22 05:14:57;;;;;;;5.97;5.57;;;;;;;;;;5073494;28;20471;-89
2023/08/22 05:17:23;;;;;;;6.60;6.00;;;;;;;;;;5059518;28;20392;-89
2023/08/22 05:19:50;;;;;;;7.65;6.95;;;;;;;;;;5069204;28;20449;-88
2023/08/22 05:22:16;;;;;;;7.28;6.60;;;;;;;;;;5065857;28;20717;-89
2023/08/22 05:24:42;;;;;;;6.70;6.13;;;;;;;;;;5066930;28;20414;-90
2023/08/22 05:27:08;;;;;;;6.93;6.43;;;;;;;;;;5076160;28;20378;-88
2023/08/22 05:29:34;;;;;;;7.10;6.45;;;;;;;;;;5074907;28;20434;-88
2023/08/22 05:32:00;;;;;;;7.22;5.75;;;;;;;;;;5073608;28;20411;-88
2023/08/22 05:34:26;;;;;;;7.45;6.63;;;;;;;;;;5066783;28;20542;-88
2023/08/22 05:36:52;;;;;;;7.40;6.70;;;;;;;;;;5057513;28;20387;-88
2023/08/22 05:39:19;;;;;;;7.07;6.47;;;;;;;;;;5064113;28;20386;-88
2023/08/22 05:41:45;;;;;;;8.23;6.40;;;;;;;;;;5060725;28;20387;-88
2023/08/22 05:44:11;;;;;;;6.60;6.10;;;;;;;;;;5067794;28;20388;-88
2023/08/22 05:46:37;;;;;;;6.60;6.10;;;;;;;;;;5056872;28;21038;-88
2023/08/22 05:49:03;;;;;;;6.53;5.97;;;;;;;;;;5068558;28;20391;-88
2023/08/22 05:51:29;;;;;;;6.93;6.43;;;;;;;;;;5066299;28;20417;-88
2023/08/22 05:53:55;;;;;;;7.18;6.68;;;;;;;;;;5078480;28;20374;-88
2023/08/22 05:56:21;;;;;;;6.85;6.35;;;;;;;;;;5064591;28;20885;-88
2023/08/22 05:58:47;;;;;;;7.18;6.50;;;;;;;;;;5074320;28;20382;-88
2023/08/22 06:01:13;;;;;;;7.15;6.55;;;;;;;;;;5066320;28;20885;-87
2023/08/22 06:03:40;;;;;;;6.88;6.38;;;;;;;;;;5068683;28;20389;-88
2023/08/22 06:06:06;;;;;;;7.20;6.50;;;;;;;;;;5060525;28;20931;-88
2023/08/22 06:08:32;;;;;;;7.00;6.50;;;;;;;;;;5074530;28;20389;-88
2023/08/22 06:10:58;;;;;;;7.22;6.53;;;;;;;;;;5069906;28;20893;-88
2023/08/22 06:13:24;;;;;;;8.32;7.53;;;;;;;;;;5064565;28;20387;-88
2023/08/22 06:15:50;;;;;;;7.97;7.28;;;;;;;;;;5060319;28;20870;-88
2023/08/22 06:18:16;;;;;;;7.10;6.50;;;;;;;;;;5062109;28;20388;-88
2023/08/22 06:20:42;;;;;;;7.65;7.05;;;;;;;;;;5053863;28;20422;-88
2023/08/22 06:23:08;;;;;;;7.07;6.57;;;;;;;;;;5067507;28;20386;-88
2023/08/22 06:25:34;;;;;;;7.00;6.50;;;;;;;;;;5072020;28;20384;-88
2023/08/22 06:28:00;;;;;;;7.00;6.30;;;;;;;;;;5053820;28;20985;-88
2023/08/22 06:30:27;;;;;;;6.60;6.10;;;;;;;;;;5074197;28;20415;-88
2023/08/22 06:32:53;;;;;;;7.63;7.03;;;;;;;;;;5079631;28;20443;-88
2023/08/22 06:35:19;;;;;;;7.70;7.00;;;;;;;;;;5068377;28;20418;-89
2023/08/22 06:37:45;;;;;;;7.57;6.90;;;;;;;;;;5064445;28;20381;-89
2023/08/22 06:40:11;;;;;;;7.18;6.57;;;;;;;;;;5057059;28;20384;-88
2023/08/22 06:42:37;;;;;;;6.90;6.40;;;;;;;;;;5074228;28;20515;-87
2023/08/22 06:45:03;;;;;;;7.47;6.95;;;;;;;;;;5091126;28;20374;-88
2023/08/22 06:47:29;;;;;;;7.80;6.30;;;;;;;;;;5060659;28;20493;-88
2023/08/22 06:49:55;;;;;;;6.80;6.20;;;;;;;;;;5069732;28;20851;-88
2023/08/22 06:52:32;;;;;;;7.50;6.90;;;;;;;;;;5068833;28;20450;-88
2023/08/22 06:54:58;;;;;;;7.63;6.93;;;;;;;;;;5066646;28;20382;-88
2023/08/22 06:57:24;;;;;;;7.13;6.53;;;;;;;;;;5069323;28;20390;-88
2023/08/22 06:59:50;;;;;;;7.35;6.75;;;;;;;;;;5053935;28;20509;-88
2023/08/22 07:02:16;;;;;;;7.88;7.07;;;;;;;;;;5053800;28;20417;-88
2023/08/22 07:04:42;;;;;;;8.05;7.35;;;;;;;;;;5080286;28;20384;-88
2023/08/22 07:07:08;;;;;;;8.90;8.10;;;;;;;;;;5071844;28;20487;-88
2023/08/22 07:09:34;;;;;;;9.77;8.68;;;;;;;;;;5073539;28;20794;-88
2023/08/22 07:12:00;;;;;;;9.20;8.40;;;;;;;;;;5060732;28;20499;-88
2023/08/22 07:14:26;;;;;;;8.68;7.90;;;;;;;;;;5067603;28;20444;-88
2023/08/22 07:16:52;;;;;;;9.30;8.10;;;;;;;;;;5058649;28;20396;-88
2023/08/22 07:19:19;;;;;;;11.23;9.93;;;;;;;;;;5063869;28;20379;-88
2023/08/22 07:21:47;;;;;;;11.23;10.10;;;;;;;;;;5084614;28;20836;-88
2023/08/22 07:24:14;;;;;;;10.43;9.43;;;;;;;;;;5065312;28;20421;-88
2023/08/22 07:26:40;;;;;;;11.90;10.27;;;;;;;;;;5055928;28;20444;-88
2023/08/22 07:29:06;;;;;;;12.13;9.23;;;;;;;;;;5062855;28;20851;-88
2023/08/22 07:31:32;;;;;;;10.02;8.88;;;;;;;;;;5061293;28;20447;-87
2023/08/22 07:33:58;;;;;;;8.80;7.90;;;;;;;;;;5069160;28;20428;-88
2023/08/22 07:36:24;;;;;;;11.10;8.20;;;;;;;;;;5056124;28;20459;-88
2023/08/22 07:38:50;;;;;;;9.90;8.63;;;;;;;;;;5061849;28;20938;-88
2023/08/22 07:41:16;;;;;;;10.20;7.88;;;;;;;;;;5064579;28;20403;-88
2023/08/22 07:43:42;;;;;;;13.93;9.13;;;;;;;;;;5057532;28;20384;-88
2023/08/22 07:46:08;;;;;;;14.20;10.38;;;;;;;;;;5066376;28;20427;-88
2023/08/22 07:48:34;;;;;;;16.15;12.30;;;;;;;;;;5063138;28;20888;-88
2023/08/22 07:51:00;;;;;;;13.13;10.75;;;;;;;;;;5068596;28;20400;-88
2023/08/22 07:53:30;;;;;;;16.05;11.07;;;;;;;;;;5056513;28;20426;-88
2023/08/22 07:55:56;;;;;;;14.38;10.98;;;;;;;;;;5073835;28;20777;-88
2023/08/22 07:58:22;;;;;;;13.10;10.90;;;;;;;;;;5087168;28;20867;-88
2023/08/22 08:00:48;;;;;;;15.38;12.18;;;;;;;;;;5062364;28;20402;-88
2023/08/22 08:03:14;;;;;;;14.48;11.27;;;;;;;;;;5071171;28;20782;-88
2023/08/22 08:05:40;;;;;;;16.13;11.10;;;;;;;;;;5079527;28;20441;-88
2023/08/22 08:08:07;;;;;;;11.32;10.10;;;;;;;;;;5075424;28;20366;-88
2023/08/22 08:10:34;;;;;;;14.63;10.63;;;;;;;;;;5080485;28;20711;-87
2023/08/22 08:13:00;;;;;;;12.18;10.77;;;;;;;;;;5069666;28;20411;-88
2023/08/22 08:15:26;;;;;;;15.57;11.25;;;;;;;;;;5055811;28;20734;-88
2023/08/22 08:17:52;;;;;;;13.02;11.02;;;;;;;;;;5056775;28;20384;-88
2023/08/22 08:20:18;;;;;;;12.10;10.48;;;;;;;;;;5087149;28;20380;-88
2023/08/22 08:22:44;;;;;;;13.57;10.50;;;;;;;;;;5069133;28;20410;-88
2023/08/22 08:25:10;;;;;;;14.83;11.67;;;;;;;;;;5063821;28;20560;-88
2023/08/22 08:27:36;;;;;;;19.08;12.82;;;;;;;;;;5083076;28;20383;-88
2023/08/22 08:30:05;;;;;;;21.05;12.57;;;;;;;;;;5069755;28;20392;-88
2023/08/22 08:32:31;;;;;;;24.83;15.88;;;;;;;;;;5055472;28;20494;-88
2023/08/22 08:34:57;;;;;;;23.77;14.90;;;;;;;;;;5070035;28;20394;-88
2023/08/22 08:37:23;;;;;;;14.47;11.57;;;;;;;;;;5072035;28;20397;-88
2023/08/22 08:39:49;;;;;;;13.53;10.77;;;;;;;;;;5066241;28;20397;-88
2023/08/22 08:42:15;;;;;;;11.63;10.23;;;;;;;;;;5076106;28;20503;-88
2023/08/22 08:44:41;;;;;;;11.98;10.18;;;;;;;;;;5075849;28;20395;-88
2023/08/22 08:47:08;;;;;;;15.32;10.43;;;;;;;;;;5074500;28;20461;-88
2023/08/22 08:49:34;;;;;;;12.88;9.90;;;;;;;;;;5084641;28;20384;-88
2023/08/22 08:52:05;;;;;;;15.82;12.32;;;;;;;;;;5056617;28;20408;-88
2023/08/22 08:54:32;;;;;;;13.38;10.50;;;;;;;;;;5074733;28;20392;-88
2023/08/22 08:56:59;;;;;;;8.82;8.00;;;;;;;;;;5070827;28;20370;-88
2023/08/22 08:59:25;;;;;;;18.73;13.38;;;;;;;;;;5081010;28;20848;-88
2023/08/22 09:01:51;;;;;;;15.18;11.50;;;;;;;;;;5086524;28;20458;-88
2023/08/22 09:04:17;;;;;;;8.73;7.47;;;;;;;;;;5057609;28;20757;-88
2023/08/22 09:06:45;;;;;;;7.90;7.15;;;;;;;;;;5056836;28;20408;-88
2023/08/22 09:09:12;;;;;;;14.63;11.15;;;;;;;;;;5088692;28;20406;-88
2023/08/22 09:11:49;;;;;;;14.35;12.38;;;;;;;;;;5059276;28;20418;-88
2023/08/22 09:14:21;;;;;;;15.60;10.93;;;;;;;;;;5082534;28;20439;-88
2023/08/22 09:16:48;;;;;;;12.70;9.27;;;;;;;;;;5088284;28;20376;-88
2023/08/22 09:19:14;;;;;;;11.07;9.53;;;;;;;;;;5077863;28;20379;-88
2023/08/22 09:21:55;;;;;;;14.73;11.63;;;;;;;;;;5059522;28;20411;-88
2023/08/22 09:24:24;;;;;;;11.90;10.18;;;;;;;;;;5079048;28;20391;-88
2023/08/22 09:26:50;;;;;;;16.40;9.73;;;;;;;;;;5083908;28;20378;-88
2023/08/22 09:29:24;;;;;;;12.05;8.55;;;;;;;;;;5081005;28;20636;-88
2023/08/22 09:31:51;;;;;;;10.57;8.27;;;;;;;;;;5086336;28;20410;-88
2023/08/22 09:34:17;;;;;;;9.70;8.15;;;;;;;;;;5089652;28;20411;-88
2023/08/22 09:36:46;;;;;;;9.30;6.95;;;;;;;;;;5077240;28;20401;-88
2023/08/22 09:39:16;;;;;;;9.57;7.68;;;;;;;;;;5086843;28;20375;-88
2023/08/22 09:41:42;;;;;;;17.90;12.60;;;;;;;;;;5083379;28;20428;-88
2023/08/22 09:44:10;;;;;;;18.55;13.68;;;;;;;;;;5067133;28;20486;-88
2023/08/22 09:46:39;;;;;;;11.35;10.02;;;;;;;;;;5071316;28;20376;-88
2023/08/22 09:49:07;;;;;;;7.72;7.03;;;;;;;;;;5076301;28;20375;-88
2023/08/22 09:51:33;;;;;;;9.43;6.60;;;;;;;;;;5067456;28;20406;-88
2023/08/22 09:54:00;;;;;;;8.60;6.43;;;;;;;;;;5054256;28;20395;-88
2023/08/22 09:56:26;;;;;;;6.50;5.93;;;;;;;;;;5054734;28;20372;-88
2023/08/22 09:58:56;;;;;;;7.60;5.78;;;;;;;;;;5056829;28;20384;-88
2023/08/22 10:01:22;;;;;;;6.47;5.60;;;;;;;;;;5083420;28;20623;-88
2023/08/22 10:03:49;;;;;;;6.10;5.40;;;;;;;;;;5073685;28;20445;-88
2023/08/22 10:06:16;;;;;;;7.13;5.47;;;;;;;;;;5087490;28;21175;-88
2023/08/22 10:08:43;;;;;;;5.78;5.28;;;;;;;;;;5069450;28;20882;-88
2023/08/22 10:11:10;;;;;;;5.00;4.55;;;;;;;;;;5055129;28;20435;-88
2023/08/22 10:13:36;;;;;;;5.97;5.00;;;;;;;;;;5085778;28;20492;-88
2023/08/22 10:16:02;;;;;;;4.70;4.30;;;;;;;;;;5078450;28;20480;-88
2023/08/22 10:18:29;;;;;;;4.55;4.25;;;;;;;;;;5073114;28;20395;-88
2023/08/22 10:20:55;;;;;;;5.90;5.00;;;;;;;;;;5075272;28;20698;-88
2023/08/22 10:24:00;;;;;;;5.63;4.68;;;;;;;;;;5075030;28;20844;-88
2023/08/22 10:26:28;;;;;;;8.52;7.05;;;;;;;;;;4978156;28;20425;-88
2023/08/22 10:29:13;;;;;;;7.38;6.65;;;;;;;;;;4992069;28;20482;-88
2023/08/22 10:31:57;;;;;;;7.00;4.90;;;;;;;;;;4991569;28;20422;-89
2023/08/22 10:34:23;;;;;;;7.13;5.73;;;;;;;;;;4965074;28;20407;-88
2023/08/22 10:36:59;;;;;;;5.23;4.73;;;;;;;;;;4959197;28;20386;-88
2023/08/22 10:39:38;;;;;;;5.38;4.55;;;;;;;;;;4975681;28;20395;-88
2023/08/22 10:42:04;;;;;;;6.55;5.00;;;;;;;;;;4992075;28;20398;-88
2023/08/22 10:44:31;;;;;;;5.13;4.43;;;;;;;;;;4975371;28;20390;-88
2023/08/22 10:47:03;;;;;;;5.03;4.10;;;;;;;;;;4974406;28;20412;-87
2023/08/22 10:49:32;;;;;;;7.05;4.10;;;;;;;;;;4989692;28;20910;-88
2023/08/22 10:52:05;;;;;;;5.47;4.55;;;;;;;;;;4988870;28;20414;-88
2023/08/22 10:54:31;;;;;;;4.88;4.38;;;;;;;;;;4986737;28;20398;-88
2023/08/22 10:57:15;;;;;;;5.10;4.28;;;;;;;;;;5030569;28;20447;-88
2023/08/22 11:00:00;;;;;;;5.00;4.60;;;;;;;;;;5072902;28;20380;-88
2023/08/22 11:02:28;;;;;;;4.70;4.23;;;;;;;;;;5072530;28;20814;-88
2023/08/22 11:04:58;;;;;;;5.03;4.60;;;;;;;;;;5071804;28;20391;-88
2023/08/22 11:07:25;;;;;;;5.23;4.40;;;;;;;;;;5073008;28;20379;-88
2023/08/22 11:09:52;;;;;;;6.65;4.10;;;;;;;;;;5068622;28;20386;-88
2023/08/22 11:12:28;;;;;;;4.47;4.00;;;;;;;;;;5097519;28;20413;-88
2023/08/22 11:14:57;;;;;;;4.60;4.07;;;;;;;;;;5088508;28;20844;-88
2023/08/22 11:17:23;;;;;;;5.70;4.18;;;;;;;;;;5078072;28;20383;-88
2023/08/22 11:19:52;;;;;;;4.30;3.90;;;;;;;;;;5059650;28;20384;-88
2023/08/22 11:22:18;;;;;;;6.60;4.00;;;;;;;;;;5060719;28;20845;-87
2023/08/22 11:24:44;;;;;;;4.20;3.80;;;;;;;;;;5061749;28;20387;-88
2023/08/22 11:27:12;;;;;;;4.55;4.15;;;;;;;;;;5077913;28;20376;-87
2023/08/22 11:29:45;;;;;;;7.55;4.28;;;;;;;;;;5077266;28;20417;-87
2023/08/22 11:32:24;;;;;;;4.60;4.07;;;;;;;;;;5066013;28;20942;-87
2023/08/22 11:34:51;;;;;;;4.55;3.90;;;;;;;;;;5083921;28;20394;-88
2023/08/22 11:37:17;;;;;;;4.38;4.00;;;;;;;;;;5077411;28;20403;-88
2023/08/22 11:39:47;;;;;;;5.60;3.80;;;;;;;;;;5073192;28;20386;-87
2023/08/22 11:42:14;;;;;;;7.13;3.90;;;;;;;;;;5061147;28;20437;-88
2023/08/22 11:45:10;;;;;;;5.55;3.80;;;;;;;;;;5071105;28;20379;-88
2023/08/22 11:47:43;;;;;;;4.63;4.22;;;;;;;;;;5081353;28;20382;-88
2023/08/22 11:50:25;;;;;;;4.93;4.40;;;;;;;;;;5096994;28;20831;-87
2023/08/22 11:52:52;;;;;;;4.65;3.63;;;;;;;;;;5085681;28;20508;-88
2023/08/22 11:55:28;;;;;;;5.20;3.70;;;;;;;;;;5076753;28;20748;-88
2023/08/22 11:57:55;;;;;;;4.88;3.47;;;;;;;;;;5057876;28;20387;-87
2023/08/22 12:00:23;;;;;;;4.88;3.60;;;;;;;;;;5076971;28;20383;-87
2023/08/22 12:02:55;;;;;;;4.10;3.70;;;;;;;;;;5091559;28;20376;-87
2023/08/22 12:05:29;;;;;;;5.55;3.80;;;;;;;;;;5092337;28;20386;-87
2023/08/22 12:07:56;;;;;;;4.00;3.60;;;;;;;;;;5080231;28;20366;-87
2023/08/22 12:10:22;;;;;;;5.25;4.07;;;;;;;;;;5084408;28;20372;-88
2023/08/22 12:12:48;;;;;;;3.80;3.50;;;;;;;;;;5076315;28;20423;-88
2023/08/22 12:15:14;;;;;;;4.75;3.80;;;;;;;;;;5070385;28;20435;-87
2023/08/22 12:17:40;;;;;;;4.50;3.60;;;;;;;;;;5091250;28;20386;-87
2023/08/22 12:20:06;;;;;;;3.78;3.33;;;;;;;;;;5081793;28;20393;-87
2023/08/22 12:22:32;;;;;;;4.00;3.60;;;;;;;;;;5077422;28;20926;-87
2023/08/22 12:24:58;;;;;;;4.38;3.88;;;;;;;;;;5078530;28;20845;-88
2023/08/22 12:27:27;;;;;;;4.10;3.70;;;;;;;;;;5075900;28;20395;-87
2023/08/22 12:29:53;;;;;;;3.95;3.50;;;;;;;;;;5077473;28;20470;-88
2023/08/22 12:32:19;;;;;;;4.60;4.20;;;;;;;;;;5069062;28;20490;-87
2023/08/22 12:34:45;;;;;;;3.97;3.60;;;;;;;;;;5089875;28;20461;-88
2023/08/22 12:37:11;;;;;;;5.07;4.57;;;;;;;;;;5083301;28;20386;-88
2023/08/22 12:39:37;;;;;;;4.30;3.90;;;;;;;;;;5096004;28;20397;-88
2023/08/22 12:42:03;;;;;;;4.10;3.75;;;;;;;;;;5091456;28;20374;-87
2023/08/22 12:44:29;;;;;;;5.38;3.70;;;;;;;;;;5057450;28;20475;-87
2023/08/22 12:46:58;;;;;;;3.97;3.60;;;;;;;;;;5085412;28;20475;-87
2023/08/22 12:49:24;;;;;;;4.15;3.60;;;;;;;;;;5074479;28;20386;-88
2023/08/22 12:51:50;;;;;;;4.00;3.30;;;;;;;;;;5070531;28;20493;-88
2023/08/22 12:54:16;;;;;;;3.60;3.30;;;;;;;;;;5059847;28;20376;-87
2023/08/22 12:56:42;;;;;;;3.83;3.53;;;;;;;;;;5088829;28;20386;-88
2023/08/22 12:59:08;;;;;;;4.05;3.38;;;;;;;;;;5063060;28;20390;-88
2023/08/22 13:01:34;;;;;;;4.30;3.55;;;;;;;;;;5066492;28;20375;-87
2023/08/22 13:04:00;;;;;;;3.77;3.40;;;;;;;;;;5065165;28;20432;-88
2023/08/22 13:06:26;;;;;;;4.03;3.70;;;;;;;;;;5055862;28;20467;-87
2023/08/22 13:08:54;;;;;;;3.70;3.40;;;;;;;;;;5089815;28;20386;-87
2023/08/22 13:11:20;;;;;;;4.15;3.40;;;;;;;;;;5074334;28;20405;-88
2023/08/22 13:13:46;;;;;;;4.07;3.38;;;;;;;;;;5075921;28;20897;-87
2023/08/22 13:16:12;;;;;;;3.42;3.13;;;;;;;;;;5073880;28;20553;-88
2023/08/22 13:18:38;;;;;;;4.30;3.60;;;;;;;;;;5071000;28;20753;-88
2023/08/22 13:21:04;;;;;;;4.35;3.92;;;;;;;;;;5073638;28;20433;-88
2023/08/22 13:23:31;;;;;;;5.05;3.55;;;;;;;;;;5082539;28;20392;-88
2023/08/22 13:25:57;;;;;;;5.50;3.53;;;;;;;;;;5055751;28;20407;-87
2023/08/22 13:28:23;;;;;;;3.30;3.00;;;;;;;;;;5086458;28;20407;-88
2023/08/22 13:30:49;;;;;;;3.78;3.15;;;;;;;;;;5084606;28;20387;-87
2023/08/22 13:33:14;;;;;;;3.35;3.15;;;;;;;;;;5062772;28;20425;-87
2023/08/22 13:35:40;;;;;;;3.30;3.00;;;;;;;;;;5081959;28;20373;-88
2023/08/22 13:38:06;;;;;;;3.58;3.22;;;;;;;;;;5062873;28;20864;-87
2023/08/22 13:40:33;;;;;;;5.22;3.40;;;;;;;;;;5076286;28;20389;-88
2023/08/22 13:42:59;;;;;;;5.37;4.10;;;;;;;;;;5082302;28;20434;-88
2023/08/22 13:45:25;;;;;;;3.63;3.33;;;;;;;;;;5085602;28;20381;-88
2023/08/22 13:47:54;;;;;;;6.07;3.03;;;;;;;;;;5093375;28;20496;-88
2023/08/22 13:50:21;;;;;;;4.20;3.80;;;;;;;;;;5061168;28;20780;-87
2023/08/22 13:52:47;;;;;;;3.45;3.15;;;;;;;;;;5093612;28;20374;-87
2023/08/22 13:55:13;;;;;;;3.47;3.13;;;;;;;;;;5068903;28;20380;-87
2023/08/22 13:57:39;;;;;;;4.47;3.23;;;;;;;;;;5098879;28;20399;-87
2023/08/22 14:00:06;;;;;;;3.50;2.90;;;;;;;;;;5078220;28;20391;-87
2023/08/22 14:02:32;;;;;;;3.47;3.17;;;;;;;;;;5075023;28;20418;-88
2023/08/22 14:04:58;;;;;;;3.42;3.13;;;;;;;;;;5066812;28;20457;-87
2023/08/22 14:07:24;;;;;;;4.22;3.05;;;;;;;;;;5074405;28;20387;-87
2023/08/22 14:09:50;;;;;;;3.63;3.30;;;;;;;;;;5068498;28;20393;-88
2023/08/22 14:12:16;;;;;;;3.63;3.33;;;;;;;;;;5076738;28;20765;-88
2023/08/22 14:14:42;;;;;;;3.40;3.10;;;;;;;;;;5085200;28;20559;-88
2023/08/22 14:17:10;;;;;;;3.47;3.10;;;;;;;;;;5069317;28;20445;-88
2023/08/22 14:19:36;;;;;;;4.30;2.83;;;;;;;;;;5057847;28;20403;-88
2023/08/22 14:22:02;;;;;;;3.25;3.00;;;;;;;;;;5071557;28;21021;-88
2023/08/22 14:24:28;;;;;;;5.32;3.00;;;;;;;;;;5061091;28;20392;-88
2023/08/22 14:26:54;;;;;;;3.47;3.17;;;;;;;;;;5066121;28;20383;-88
2023/08/22 14:29:20;;;;;;;3.77;3.27;;;;;;;;;;5084347;28;20436;-87
2023/08/22 14:31:46;;;;;;;5.38;3.70;;;;;;;;;;5056830;28;20465;-88
2023/08/22 14:34:12;;;;;;;3.92;3.20;;;;;;;;;;5054387;28;20448;-88
2023/08/22 14:36:38;;;;;;;4.05;3.03;;;;;;;;;;5072794;28;20477;-87
2023/08/22 14:39:04;;;;;;;3.63;3.13;;;;;;;;;;5072428;28;20379;-88
2023/08/22 14:41:30;;;;;;;3.40;3.10;;;;;;;;;;5057197;28;20415;-89